sensor_id;sensor_type;location;lat;lon;timestamp;temperature;humidity
20831;DHT22;10576;53.556;9.868;2023-10-08T00:01:34;11.60;99.90
20831;DHT22;10576;53.556;9.868;2023-10-08T00:04:00;11.60;99.90
20831;DHT22;10576;53.556;9.868;2023-10-08T00:06:29;11.60;99.90
20831;DHT22;10576;53.556;9.868;2023-10-08T00:08:55;11.60;99.90
20831;DHT22;10576;53.556;9.868;2023-10-08T00:11:28;11.50;99.90
20831;DHT22;10576;53.556;9.868;2023-10-08T00:13:54;11.50;99.90
20831;DHT22;10576;53.556;9.868;2023-10-08T00:16:21;11.50;99.90
20831;DHT22;10576;53.556;9.868;2023-10-08T00:18:47;11.50;99.90
20831;DHT22;10576;53.556;9.868;2023-10-08T00:21:16;11.60;99.90
20831;DHT22;10576;53.556;9.868;2023-10-08T00:23:43;11.60;99.90
20831;DHT22;10576;53.556;9.868;2023-10-08T00:26:13;11.50;99.90
20831;DHT22;10576;53.556;9.868;2023-10-08T00:28:44;11.60;99.90
20831;DHT22;10576;53.556;9.868;2023-10-08T00:31:14;11.60;99.90
20831;DHT22;10576;53.556;9.868;2023-10-08T00:33:42;11.60;99.90
20831;DHT22;10576;53.556;9.868;2023-10-08T00:36:10;11.60;99.90
20831;DHT22;10576;53.556;9.868;2023-10-08T00:38:46;11.60;99.90
20831;DHT22;10576;53.556;9.868;2023-10-08T00:41:15;11.50;99.90
20831;DHT22;10576;53.556;9.868;2023-10-08T00:43:41;11.50;99.90
20831;DHT22;10576;53.556;9.868;2023-10-08T00:46:07;11.50;99.90
20831;DHT22;10576;53.556;9.868;2023-10-08T00:48:47;11.60;99.90
20831;DHT22;10576;53.556;9.868;2023-10-08T00:51:13;11.50;99.90
20831;DHT22;10576;53.556;9.868;2023-10-08T00:54:01;11.50;99.90
20831;DHT22;10576;53.556;9.868;2023-10-08T00:56:31;11.50;99.90
20831;DHT22;10576;53.556;9.868;2023-10-08T00:59:12;11.50;99.90
20831;DHT22;10576;53.556;9.868;2023-10-08T01:01:44;11.50;99.90
20831;DHT22;10576;53.556;9.868;2023-10-08T01:04:33;11.50;99.90
20831;DHT22;10576;53.556;9.868;2023-10-08T01:07:02;11.50;99.90
20831;DHT22;10576;53.556;9.868;2023-10-08T01:09:37;11.50;99.90
20831;DHT22;10576;53.556;9.868;2023-10-08T01:14:49;11.50;99.90
20831;DHT22;10576;53.556;9.868;2023-10-08T01:17:19;11.50;99.90
20831;DHT22;10576;53.556;9.868;2023-10-08T01:19:45;11.50;99.90
20831;DHT22;10576;53.556;9.868;2023-10-08T01:22:16;11.50;99.90
20831;DHT22;10576;53.556;9.868;2023-10-08T01:24:47;11.50;99.90
20831;DHT22;10576;53.556;9.868;2023-10-08T01:27:14;11.50;99.90
20831;DHT22;10576;53.556;9.868;2023-10-08T01:29:46;11.50;99.90
20831;DHT22;10576;53.556;9.868;2023-10-08T01:32:11;11.50;99.90
20831;DHT22;10576;53.556;9.868;2023-10-08T01:34:41;11.50;99.90
20831;DHT22;10576;53.556;9.868;2023-10-08T01:37:14;11.50;99.90
20831;DHT22;10576;53.556;9.868;2023-10-08T01:39:42;11.50;99.90
20831;DHT22;10576;53.556;9.868;2023-10-08T01:42:08;11.50;99.90
20831;DHT22;10576;53.556;9.868;2023-10-08T01:44:42;11.50;99.90
20831;DHT22;10576;53.556;9.868;2023-10-08T01:47:10;11.50;99.90
20831;DHT22;10576;53.556;9.868;2023-10-08T01:49:36;11.70;99.90
20831;DHT22;10576;53.556;9.868;2023-10-08T01:52:04;11.50;99.90
20831;DHT22;10576;53.556;9.868;2023-10-08T01:54:33;11.50;99.90
20831;DHT22;10576;53.556;9.868;2023-10-08T01:57:01;11.50;99.90
20831;DHT22;10576;53.556;9.868;2023-10-08T01:59:26;11.50;99.90
20831;DHT22;10576;53.556;9.868;2023-10-08T02:01:52;10.90;99.90
20831;DHT22;10576;53.556;9.868;2023-10-08T02:04:21;11.50;99.90
20831;DHT22;10576;53.556;9.868;2023-10-08T02:06:47;11.50;99.90
20831;DHT22;10576;53.556;9.868;2023-10-08T02:09:12;11.50;99.90
20831;DHT22;10576;53.556;9.868;2023-10-08T02:11:43;11.50;99.90
20831;DHT22;10576;53.556;9.868;2023-10-08T02:14:08;11.50;99.90
20831;DHT22;10576;53.556;9.868;2023-10-08T02:16:34;11.50;99.90
20831;DHT22;10576;53.556;9.868;2023-10-08T02:18:59;11.50;99.90
20831;DHT22;10576;53.556;9.868;2023-10-08T02:21:25;11.40;99.90
20831;DHT22;10576;53.556;9.868;2023-10-08T02:23:51;11.40;99.90
20831;DHT22;10576;53.556;9.868;2023-10-08T02:26:17;11.40;99.90
20831;DHT22;10576;53.556;9.868;2023-10-08T02:28:44;11.40;99.90
20831;DHT22;10576;53.556;9.868;2023-10-08T02:31:10;11.40;99.90
20831;DHT22;10576;53.556;9.868;2023-10-08T02:33:35;11.30;99.90
20831;DHT22;10576;53.556;9.868;2023-10-08T02:36:02;11.30;99.90
20831;DHT22;10576;53.556;9.868;2023-10-08T02:38:29;11.30;99.90
20831;DHT22;10576;53.556;9.868;2023-10-08T02:41:03;11.30;99.90
20831;DHT22;10576;53.556;9.868;2023-10-08T02:43:32;11.30;99.90
20831;DHT22;10576;53.556;9.868;2023-10-08T02:46:00;11.30;99.90
20831;DHT22;10576;53.556;9.868;2023-10-08T02:48:25;11.30;99.90
20831;DHT22;10576;53.556;9.868;2023-10-08T02:50:52;11.30;99.90
20831;DHT22;10576;53.556;9.868;2023-10-08T02:53:19;8.70;99.90
20831;DHT22;10576;53.556;9.868;2023-10-08T02:55:48;11.30;99.90
20831;DHT22;10576;53.556;9.868;2023-10-08T02:58:15;11.30;99.90
20831;DHT22;10576;53.556;9.868;2023-10-08T03:00:41;11.30;99.90
20831;DHT22;10576;53.556;9.868;2023-10-08T03:03:07;11.30;99.90
20831;DHT22;10576;53.556;9.868;2023-10-08T03:05:41;11.30;99.90
20831;DHT22;10576;53.556;9.868;2023-10-08T03:08:07;11.30;99.90
20831;DHT22;10576;53.556;9.868;2023-10-08T03:10:38;11.20;99.90
20831;DHT22;10576;53.556;9.868;2023-10-08T03:13:05;11.20;99.90
20831;DHT22;10576;53.556;9.868;2023-10-08T03:15:31;11.20;99.90
20831;DHT22;10576;53.556;9.868;2023-10-08T03:18:15;11.20;99.90
20831;DHT22;10576;53.556;9.868;2023-10-08T03:20:41;11.20;99.90
20831;DHT22;10576;53.556;9.868;2023-10-08T03:23:12;11.20;99.90
20831;DHT22;10576;53.556;9.868;2023-10-08T03:25:49;11.10;99.90
20831;DHT22;10576;53.556;9.868;2023-10-08T03:28:15;11.10;99.90
20831;DHT22;10576;53.556;9.868;2023-10-08T03:30:41;11.10;99.90
20831;DHT22;10576;53.556;9.868;2023-10-08T03:33:16;11.10;99.90
20831;DHT22;10576;53.556;9.868;2023-10-08T03:35:48;11.10;99.90
20831;DHT22;10576;53.556;9.868;2023-10-08T03:38:18;11.10;99.90
20831;DHT22;10576;53.556;9.868;2023-10-08T03:40:54;11.00;99.90
20831;DHT22;10576;53.556;9.868;2023-10-08T03:43:22;11.00;99.90
20831;DHT22;10576;53.556;9.868;2023-10-08T03:46:09;11.00;99.90
20831;DHT22;10576;53.556;9.868;2023-10-08T03:48:41;11.00;99.90
20831;DHT22;10576;53.556;9.868;2023-10-08T03:51:10;11.00;99.90
20831;DHT22;10576;53.556;9.868;2023-10-08T03:53:38;11.00;99.90
20831;DHT22;10576;53.556;9.868;2023-10-08T03:56:23;10.90;99.90
20831;DHT22;10576;53.556;9.868;2023-10-08T03:58:50;10.90;99.90
20831;DHT22;10576;53.556;9.868;2023-10-08T04:01:19;10.90;99.90
20831;DHT22;10576;53.556;9.868;2023-10-08T04:03:45;10.90;99.90
20831;DHT22;10576;53.556;9.868;2023-10-08T04:06:16;10.90;99.90
20831;DHT22;10576;53.556;9.868;2023-10-08T04:08:48;10.90;99.90
20831;DHT22;10576;53.556;9.868;2023-10-08T04:11:32;10.80;99.90
20831;DHT22;10576;53.556;9.868;2023-10-08T04:14:04;10.80;99.90
20831;DHT22;10576;53.556;9.868;2023-10-08T04:16:31;10.80;99.90
20831;DHT22;10576;53.556;9.868;2023-10-08T04:18:57;10.80;99.90
20831;DHT22;10576;53.556;9.868;2023-10-08T04:21:23;10.90;99.90
20831;DHT22;10576;53.556;9.868;2023-10-08T04:23:53;10.90;99.90
20831;DHT22;10576;53.556;9.868;2023-10-08T04:26:19;10.80;99.90
20831;DHT22;10576;53.556;9.868;2023-10-08T04:28:55;10.70;99.90
20831;DHT22;10576;53.556;9.868;2023-10-08T04:31:23;10.80;99.90
20831;DHT22;10576;53.556;9.868;2023-10-08T04:34:08;10.80;99.90
20831;DHT22;10576;53.556;9.868;2023-10-08T04:36:47;10.80;99.90
20831;DHT22;10576;53.556;9.868;2023-10-08T04:39:19;10.70;99.90
20831;DHT22;10576;53.556;9.868;2023-10-08T04:41:52;10.80;99.90
20831;DHT22;10576;53.556;9.868;2023-10-08T04:44:19;10.80;99.90
20831;DHT22;10576;53.556;9.868;2023-10-08T04:46:47;10.80;99.90
20831;DHT22;10576;53.556;9.868;2023-10-08T04:49:14;10.80;99.90
20831;DHT22;10576;53.556;9.868;2023-10-08T04:51:45;10.80;99.90
20831;DHT22;10576;53.556;9.868;2023-10-08T04:54:14;10.80;99.90
20831;DHT22;10576;53.556;9.868;2023-10-08T04:56:43;10.70;99.90
20831;DHT22;10576;53.556;9.868;2023-10-08T04:59:09;10.80;99.90
20831;DHT22;10576;53.556;9.868;2023-10-08T05:01:37;10.80;99.90
20831;DHT22;10576;53.556;9.868;2023-10-08T05:04:21;10.70;99.90
20831;DHT22;10576;53.556;9.868;2023-10-08T05:06:52;10.70;99.90
20831;DHT22;10576;53.556;9.868;2023-10-08T05:09:26;14.00;99.90
20831;DHT22;10576;53.556;9.868;2023-10-08T05:12:06;10.60;99.90
20831;DHT22;10576;53.556;9.868;2023-10-08T05:14:53;10.50;99.90
20831;DHT22;10576;53.556;9.868;2023-10-08T05:20:16;10.60;99.90
20831;DHT22;10576;53.556;9.868;2023-10-08T05:22:45;10.50;99.90
20831;DHT22;10576;53.556;9.868;2023-10-08T05:25:20;10.50;99.90
20831;DHT22;10576;53.556;9.868;2023-10-08T05:27:46;10.50;99.90
20831;DHT22;10576;53.556;9.868;2023-10-08T05:30:18;10.40;99.90
20831;DHT22;10576;53.556;9.868;2023-10-08T05:33:02;10.40;99.90
20831;DHT22;10576;53.556;9.868;2023-10-08T05:35:46;10.40;99.90
20831;DHT22;10576;53.556;9.868;2023-10-08T05:38:16;10.30;99.90
20831;DHT22;10576;53.556;9.868;2023-10-08T05:40:48;10.30;99.90
20831;DHT22;10576;53.556;9.868;2023-10-08T05:46:03;10.30;99.90
20831;DHT22;10576;53.556;9.868;2023-10-08T05:48:55;10.40;99.90
20831;DHT22;10576;53.556;9.868;2023-10-08T05:51:27;10.30;99.90
20831;DHT22;10576;53.556;9.868;2023-10-08T05:54:15;10.30;99.90
20831;DHT22;10576;53.556;9.868;2023-10-08T05:56:57;10.30;99.90
20831;DHT22;10576;53.556;9.868;2023-10-08T05:59:35;10.10;99.90
20831;DHT22;10576;53.556;9.868;2023-10-08T06:02:27;10.10;99.90
20831;DHT22;10576;53.556;9.868;2023-10-08T06:05:13;9.30;99.90
20831;DHT22;10576;53.556;9.868;2023-10-08T06:07:39;10.10;99.90
20831;DHT22;10576;53.556;9.868;2023-10-08T06:10:25;10.10;99.90
20831;DHT22;10576;53.556;9.868;2023-10-08T06:15:40;10.10;99.90
20831;DHT22;10576;53.556;9.868;2023-10-08T06:18:30;10.10;99.90
20831;DHT22;10576;53.556;9.868;2023-10-08T06:21:03;10.20;99.90
20831;DHT22;10576;53.556;9.868;2023-10-08T06:23:34;10.20;99.90
20831;DHT22;10576;53.556;9.868;2023-10-08T06:26:02;10.20;99.90
20831;DHT22;10576;53.556;9.868;2023-10-08T06:28:40;10.10;99.90
20831;DHT22;10576;53.556;9.868;2023-10-08T06:31:07;10.10;99.90
20831;DHT22;10576;53.556;9.868;2023-10-08T06:33:37;10.20;99.90
20831;DHT22;10576;53.556;9.868;2023-10-08T06:36:03;10.20;99.90
20831;DHT22;10576;53.556;9.868;2023-10-08T06:38:42;10.20;99.90
20831;DHT22;10576;53.556;9.868;2023-10-08T06:41:09;10.20;99.90
20831;DHT22;10576;53.556;9.868;2023-10-08T06:43:41;10.20;99.90
20831;DHT22;10576;53.556;9.868;2023-10-08T06:46:27;10.30;99.90
20831;DHT22;10576;53.556;9.868;2023-10-08T06:48:54;10.30;99.90
20831;DHT22;10576;53.556;9.868;2023-10-08T06:53:47;10.30;99.90
20831;DHT22;10576;53.556;9.868;2023-10-08T06:56:13;10.20;99.90
20831;DHT22;10576;53.556;9.868;2023-10-08T06:58:40;10.30;99.90
20831;DHT22;10576;53.556;9.868;2023-10-08T07:01:13;10.30;99.90
20831;DHT22;10576;53.556;9.868;2023-10-08T07:03:44;10.40;99.90
20831;DHT22;10576;53.556;9.868;2023-10-08T07:06:11;10.40;99.90
20831;DHT22;10576;53.556;9.868;2023-10-08T07:08:51;10.40;99.90
20831;DHT22;10576;53.556;9.868;2023-10-08T07:13:46;10.40;99.90
20831;DHT22;10576;53.556;9.868;2023-10-08T07:16:12;10.50;99.90
20831;DHT22;10576;53.556;9.868;2023-10-08T07:18:38;10.50;99.90
20831;DHT22;10576;53.556;9.868;2023-10-08T07:21:04;10.50;99.90
20831;DHT22;10576;53.556;9.868;2023-10-08T07:23:37;10.50;99.90
20831;DHT22;10576;53.556;9.868;2023-10-08T07:26:18;10.60;99.90
20831;DHT22;10576;53.556;9.868;2023-10-08T07:28:49;10.70;99.90
20831;DHT22;10576;53.556;9.868;2023-10-08T07:31:17;10.70;99.90
20831;DHT22;10576;53.556;9.868;2023-10-08T07:33:46;10.80;99.90
20831;DHT22;10576;53.556;9.868;2023-10-08T07:36:12;10.80;99.90
20831;DHT22;10576;53.556;9.868;2023-10-08T07:38:42;11.10;99.90
20831;DHT22;10576;53.556;9.868;2023-10-08T07:41:11;11.00;99.90
20831;DHT22;10576;53.556;9.868;2023-10-08T07:43:44;11.20;99.90
20831;DHT22;10576;53.556;9.868;2023-10-08T07:46:26;11.30;99.90
20831;DHT22;10576;53.556;9.868;2023-10-08T07:48:52;11.50;99.90
20831;DHT22;10576;53.556;9.868;2023-10-08T07:51:18;11.70;99.90
20831;DHT22;10576;53.556;9.868;2023-10-08T07:53:48;11.70;99.90
20831;DHT22;10576;53.556;9.868;2023-10-08T07:56:13;11.90;99.90
20831;DHT22;10576;53.556;9.868;2023-10-08T07:58:39;12.00;99.90
20831;DHT22;10576;53.556;9.868;2023-10-08T08:01:08;12.20;99.90
20831;DHT22;10576;53.556;9.868;2023-10-08T08:03:35;12.30;99.90
20831;DHT22;10576;53.556;9.868;2023-10-08T08:06:04;12.40;99.90
20831;DHT22;10576;53.556;9.868;2023-10-08T08:08:32;12.50;99.90
20831;DHT22;10576;53.556;9.868;2023-10-08T08:10:59;12.60;99.90
20831;DHT22;10576;53.556;9.868;2023-10-08T08:13:31;12.60;99.90
20831;DHT22;10576;53.556;9.868;2023-10-08T08:15:56;12.60;99.90
20831;DHT22;10576;53.556;9.868;2023-10-08T08:18:37;12.60;99.90
20831;DHT22;10576;53.556;9.868;2023-10-08T08:21:03;12.60;99.90
20831;DHT22;10576;53.556;9.868;2023-10-08T08:23:31;12.70;99.90
20831;DHT22;10576;53.556;9.868;2023-10-08T08:25:57;12.60;99.90
20831;DHT22;10576;53.556;9.868;2023-10-08T08:28:38;12.80;99.90
20831;DHT22;10576;53.556;9.868;2023-10-08T08:31:04;12.80;99.90
20831;DHT22;10576;53.556;9.868;2023-10-08T08:33:32;12.80;99.90
20831;DHT22;10576;53.556;9.868;2023-10-08T08:36:17;12.90;99.90
20831;DHT22;10576;53.556;9.868;2023-10-08T08:38:42;12.90;99.90
20831;DHT22;10576;53.556;9.868;2023-10-08T08:41:08;13.00;99.90
20831;DHT22;10576;53.556;9.868;2023-10-08T08:43:37;13.00;99.90
20831;DHT22;10576;53.556;9.868;2023-10-08T08:46:09;12.90;99.90
20831;DHT22;10576;53.556;9.868;2023-10-08T08:48:41;13.00;99.90
20831;DHT22;10576;53.556;9.868;2023-10-08T08:51:07;13.00;99.90
20831;DHT22;10576;53.556;9.868;2023-10-08T08:53:35;13.00;99.90
20831;DHT22;10576;53.556;9.868;2023-10-08T08:56:01;13.10;99.90
20831;DHT22;10576;53.556;9.868;2023-10-08T08:58:32;13.00;99.90
20831;DHT22;10576;53.556;9.868;2023-10-08T09:00:58;13.10;99.90
20831;DHT22;10576;53.556;9.868;2023-10-08T09:03:24;13.20;99.90
20831;DHT22;10576;53.556;9.868;2023-10-08T09:05:58;13.20;99.90
20831;DHT22;10576;53.556;9.868;2023-10-08T09:08:28;13.20;99.90
20831;DHT22;10576;53.556;9.868;2023-10-08T09:10:57;13.20;99.90
20831;DHT22;10576;53.556;9.868;2023-10-08T09:13:26;13.20;99.90
20831;DHT22;10576;53.556;9.868;2023-10-08T09:15:55;13.20;99.90
20831;DHT22;10576;53.556;9.868;2023-10-08T09:18:22;13.20;99.90
20831;DHT22;10576;53.556;9.868;2023-10-08T09:20:48;13.30;99.90
20831;DHT22;10576;53.556;9.868;2023-10-08T09:23:15;13.30;99.90
20831;DHT22;10576;53.556;9.868;2023-10-08T09:25:44;13.30;99.90
20831;DHT22;10576;53.556;9.868;2023-10-08T09:28:11;13.50;99.90
20831;DHT22;10576;53.556;9.868;2023-10-08T09:30:39;13.50;99.90
20831;DHT22;10576;53.556;9.868;2023-10-08T09:33:11;13.60;99.90
20831;DHT22;10576;53.556;9.868;2023-10-08T09:35:37;13.60;99.90
20831;DHT22;10576;53.556;9.868;2023-10-08T09:38:03;13.70;99.90
20831;DHT22;10576;53.556;9.868;2023-10-08T09:40:29;13.70;99.90
20831;DHT22;10576;53.556;9.868;2023-10-08T09:42:55;13.70;99.90
20831;DHT22;10576;53.556;9.868;2023-10-08T09:45:20;13.70;99.90
20831;DHT22;10576;53.556;9.868;2023-10-08T09:47:50;13.70;99.90
20831;DHT22;10576;53.556;9.868;2023-10-08T09:50:19;13.70;99.90
20831;DHT22;10576;53.556;9.868;2023-10-08T09:55:32;13.70;99.90
20831;DHT22;10576;53.556;9.868;2023-10-08T09:57:57;13.70;99.90
20831;DHT22;10576;53.556;9.868;2023-10-08T10:00:23;13.80;99.90
20831;DHT22;10576;53.556;9.868;2023-10-08T10:03:00;13.80;99.90
20831;DHT22;10576;53.556;9.868;2023-10-08T10:05:31;13.80;99.90
20831;DHT22;10576;53.556;9.868;2023-10-08T10:07:57;13.80;99.90
20831;DHT22;10576;53.556;9.868;2023-10-08T10:10:29;13.80;99.90
20831;DHT22;10576;53.556;9.868;2023-10-08T10:13:03;13.80;99.90
20831;DHT22;10576;53.556;9.868;2023-10-08T10:15:31;13.80;99.90
20831;DHT22;10576;53.556;9.868;2023-10-08T10:17:58;13.90;99.90
20831;DHT22;10576;53.556;9.868;2023-10-08T10:20:24;13.90;99.90
20831;DHT22;10576;53.556;9.868;2023-10-08T10:22:49;14.00;99.90
20831;DHT22;10576;53.556;9.868;2023-10-08T10:25:16;14.00;99.90
20831;DHT22;10576;53.556;9.868;2023-10-08T10:30:16;14.30;99.90
20831;DHT22;10576;53.556;9.868;2023-10-08T10:32:44;14.30;99.90
20831;DHT22;10576;53.556;9.868;2023-10-08T10:35:14;14.30;99.90
20831;DHT22;10576;53.556;9.868;2023-10-08T10:37:43;14.30;99.90
20831;DHT22;10576;53.556;9.868;2023-10-08T10:40:24;14.30;99.90
20831;DHT22;10576;53.556;9.868;2023-10-08T10:43:05;14.40;99.90
20831;DHT22;10576;53.556;9.868;2023-10-08T10:45:41;14.50;99.90
20831;DHT22;10576;53.556;9.868;2023-10-08T10:48:12;14.50;99.90
20831;DHT22;10576;53.556;9.868;2023-10-08T10:50:45;14.70;99.90
20831;DHT22;10576;53.556;9.868;2023-10-08T10:53:34;14.80;99.90
20831;DHT22;10576;53.556;9.868;2023-10-08T10:56:15;14.80;99.90
20831;DHT22;10576;53.556;9.868;2023-10-08T10:58:47;14.80;99.90
20831;DHT22;10576;53.556;9.868;2023-10-08T11:01:22;14.80;99.90
20831;DHT22;10576;53.556;9.868;2023-10-08T11:03:50;14.70;99.90
20831;DHT22;10576;53.556;9.868;2023-10-08T11:06:17;14.70;99.90
20831;DHT22;10576;53.556;9.868;2023-10-08T11:08:51;15.00;99.90
20831;DHT22;10576;53.556;9.868;2023-10-08T11:11:18;15.00;99.90
20831;DHT22;10576;53.556;9.868;2023-10-08T11:13:44;15.10;99.90
20831;DHT22;10576;53.556;9.868;2023-10-08T11:16:16;15.10;99.90
20831;DHT22;10576;53.556;9.868;2023-10-08T11:18:45;15.00;99.90
20831;DHT22;10576;53.556;9.868;2023-10-08T11:21:15;15.10;99.90
20831;DHT22;10576;53.556;9.868;2023-10-08T11:23:51;15.00;99.90
20831;DHT22;10576;53.556;9.868;2023-10-08T11:26:25;14.90;99.90
20831;DHT22;10576;53.556;9.868;2023-10-08T11:29:01;14.90;99.90
20831;DHT22;10576;53.556;9.868;2023-10-08T11:31:28;15.20;99.90
20831;DHT22;10576;53.556;9.868;2023-10-08T11:33:58;15.20;99.90
20831;DHT22;10576;53.556;9.868;2023-10-08T11:36:24;15.40;99.90
20831;DHT22;10576;53.556;9.868;2023-10-08T11:39:08;15.50;99.90
20831;DHT22;10576;53.556;9.868;2023-10-08T11:41:34;15.50;99.90
20831;DHT22;10576;53.556;9.868;2023-10-08T11:44:32;15.50;99.90
20831;DHT22;10576;53.556;9.868;2023-10-08T11:47:01;15.60;99.90
20831;DHT22;10576;53.556;9.868;2023-10-08T11:49:34;15.70;99.90
20831;DHT22;10576;53.556;9.868;2023-10-08T11:52:01;15.60;99.90
20831;DHT22;10576;53.556;9.868;2023-10-08T11:54:27;15.60;99.90
20831;DHT22;10576;53.556;9.868;2023-10-08T11:56:53;15.70;99.90
20831;DHT22;10576;53.556;9.868;2023-10-08T11:59:18;15.70;99.90
20831;DHT22;10576;53.556;9.868;2023-10-08T12:01:44;15.70;99.90
20831;DHT22;10576;53.556;9.868;2023-10-08T12:04:11;15.70;99.90
20831;DHT22;10576;53.556;9.868;2023-10-08T12:06:41;15.60;99.90
20831;DHT22;10576;53.556;9.868;2023-10-08T12:09:12;15.80;99.90
20831;DHT22;10576;53.556;9.868;2023-10-08T12:11:38;15.80;99.90
20831;DHT22;10576;53.556;9.868;2023-10-08T12:14:05;15.80;99.90
20831;DHT22;10576;53.556;9.868;2023-10-08T12:16:30;15.80;99.90
20831;DHT22;10576;53.556;9.868;2023-10-08T12:19:00;15.90;99.90
20831;DHT22;10576;53.556;9.868;2023-10-08T12:21:26;15.70;99.90
20831;DHT22;10576;53.556;9.868;2023-10-08T12:23:55;15.60;99.90
20831;DHT22;10576;53.556;9.868;2023-10-08T12:26:20;15.50;99.90
20831;DHT22;10576;53.556;9.868;2023-10-08T12:28:46;15.30;99.90
20831;DHT22;10576;53.556;9.868;2023-10-08T12:31:14;15.20;99.90
20831;DHT22;10576;53.556;9.868;2023-10-08T12:33:46;15.10;99.90
20831;DHT22;10576;53.556;9.868;2023-10-08T12:36:12;15.10;99.90
20831;DHT22;10576;53.556;9.868;2023-10-08T12:38:38;15.00;99.90
20831;DHT22;10576;53.556;9.868;2023-10-08T12:41:04;14.90;99.90
20831;DHT22;10576;53.556;9.868;2023-10-08T12:43:40;14.80;99.90
20831;DHT22;10576;53.556;9.868;2023-10-08T12:46:08;14.80;99.90
20831;DHT22;10576;53.556;9.868;2023-10-08T12:48:36;14.90;99.90
20831;DHT22;10576;53.556;9.868;2023-10-08T12:51:02;14.90;99.90
20831;DHT22;10576;53.556;9.868;2023-10-08T12:53:31;15.00;99.90
20831;DHT22;10576;53.556;9.868;2023-10-08T12:56:00;15.00;99.90
20831;DHT22;10576;53.556;9.868;2023-10-08T12:58:30;15.00;99.90
20831;DHT22;10576;53.556;9.868;2023-10-08T13:00:57;15.00;99.90
20831;DHT22;10576;53.556;9.868;2023-10-08T13:03:26;15.10;99.90
20831;DHT22;10576;53.556;9.868;2023-10-08T13:05:55;15.10;99.90
20831;DHT22;10576;53.556;9.868;2023-10-08T13:08:29;15.00;99.90
20831;DHT22;10576;53.556;9.868;2023-10-08T13:10:55;15.00;99.90
20831;DHT22;10576;53.556;9.868;2023-10-08T13:13:29;15.00;99.90
20831;DHT22;10576;53.556;9.868;2023-10-08T13:15:55;15.00;99.90
20831;DHT22;10576;53.556;9.868;2023-10-08T13:18:23;15.00;99.90
20831;DHT22;10576;53.556;9.868;2023-10-08T13:20:51;15.00;99.90
20831;DHT22;10576;53.556;9.868;2023-10-08T13:23:17;15.00;99.90
20831;DHT22;10576;53.556;9.868;2023-10-08T13:25:43;15.10;99.90
20831;DHT22;10576;53.556;9.868;2023-10-08T13:28:11;15.10;99.90
20831;DHT22;10576;53.556;9.868;2023-10-08T13:30:37;15.10;99.90
20831;DHT22;10576;53.556;9.868;2023-10-08T13:33:03;15.00;99.90
20831;DHT22;10576;53.556;9.868;2023-10-08T13:35:29;14.90;99.90
20831;DHT22;10576;53.556;9.868;2023-10-08T13:37:54;14.90;99.90
20831;DHT22;10576;53.556;9.868;2023-10-08T13:40:21;14.90;99.90
20831;DHT22;10576;53.556;9.868;2023-10-08T13:42:58;14.90;99.90
20831;DHT22;10576;53.556;9.868;2023-10-08T13:45:23;14.90;99.90
20831;DHT22;10576;53.556;9.868;2023-10-08T13:47:52;14.80;99.90
20831;DHT22;10576;53.556;9.868;2023-10-08T13:50:17;14.80;99.90
20831;DHT22;10576;53.556;9.868;2023-10-08T13:52:43;14.70;99.90
20831;DHT22;10576;53.556;9.868;2023-10-08T13:55:09;14.80;99.90
20831;DHT22;10576;53.556;9.868;2023-10-08T13:57:41;14.80;99.90
20831;DHT22;10576;53.556;9.868;2023-10-08T14:00:08;14.80;99.90
20831;DHT22;10576;53.556;9.868;2023-10-08T14:02:41;14.90;99.90
20831;DHT22;10576;53.556;9.868;2023-10-08T14:05:07;14.90;99.90
20831;DHT22;10576;53.556;9.868;2023-10-08T14:07:35;15.00;99.90
20831;DHT22;10576;53.556;9.868;2023-10-08T14:10:00;15.00;99.90
20831;DHT22;10576;53.556;9.868;2023-10-08T14:12:30;14.90;99.90
20831;DHT22;10576;53.556;9.868;2023-10-08T14:15:00;14.90;99.90
20831;DHT22;10576;53.556;9.868;2023-10-08T14:17:31;14.80;99.90
20831;DHT22;10576;53.556;9.868;2023-10-08T14:20:08;14.80;99.90
20831;DHT22;10576;53.556;9.868;2023-10-08T14:22:38;14.70;99.90
20831;DHT22;10576;53.556;9.868;2023-10-08T14:25:06;14.70;99.90
20831;DHT22;10576;53.556;9.868;2023-10-08T14:27:37;14.60;99.90
20831;DHT22;10576;53.556;9.868;2023-10-08T14:30:08;14.60;99.90
20831;DHT22;10576;53.556;9.868;2023-10-08T14:32:43;14.50;99.90
20831;DHT22;10576;53.556;9.868;2023-10-08T14:35:14;14.50;99.90
20831;DHT22;10576;53.556;9.868;2023-10-08T14:37:58;14.50;99.90
20831;DHT22;10576;53.556;9.868;2023-10-08T14:40:42;14.40;99.90
20831;DHT22;10576;53.556;9.868;2023-10-08T14:43:27;14.40;99.90
20831;DHT22;10576;53.556;9.868;2023-10-08T14:45:56;14.40;99.90
20831;DHT22;10576;53.556;9.868;2023-10-08T14:48:22;14.40;99.90
20831;DHT22;10576;53.556;9.868;2023-10-08T14:50:49;14.40;99.90
20831;DHT22;10576;53.556;9.868;2023-10-08T14:53:14;14.30;99.90
20831;DHT22;10576;53.556;9.868;2023-10-08T14:55:40;14.30;99.90
20831;DHT22;10576;53.556;9.868;2023-10-08T14:58:06;14.20;99.90
20831;DHT22;10576;53.556;9.868;2023-10-08T15:00:36;14.20;99.90
20831;DHT22;10576;53.556;9.868;2023-10-08T15:03:02;14.20;99.90
20831;DHT22;10576;53.556;9.868;2023-10-08T15:05:31;14.10;99.90
20831;DHT22;10576;53.556;9.868;2023-10-08T15:07:56;14.00;99.90
20831;DHT22;10576;53.556;9.868;2023-10-08T15:10:22;14.00;99.90
20831;DHT22;10576;53.556;9.868;2023-10-08T15:12:48;14.00;99.90
20831;DHT22;10576;53.556;9.868;2023-10-08T15:15:14;13.90;99.90
20831;DHT22;10576;53.556;9.868;2023-10-08T15:17:40;13.90;99.90
20831;DHT22;10576;53.556;9.868;2023-10-08T15:20:07;13.90;99.90
20831;DHT22;10576;53.556;9.868;2023-10-08T15:22:33;13.90;99.90
20831;DHT22;10576;53.556;9.868;2023-10-08T15:24:58;13.90;99.90
20831;DHT22;10576;53.556;9.868;2023-10-08T15:27:24;13.80;99.90
20831;DHT22;10576;53.556;9.868;2023-10-08T15:29:49;13.80;99.90
20831;DHT22;10576;53.556;9.868;2023-10-08T15:32:15;13.80;99.90
20831;DHT22;10576;53.556;9.868;2023-10-08T15:34:40;13.80;99.90
20831;DHT22;10576;53.556;9.868;2023-10-08T15:37:07;13.80;99.90
20831;DHT22;10576;53.556;9.868;2023-10-08T15:39:32;13.80;99.90
20831;DHT22;10576;53.556;9.868;2023-10-08T15:41:58;13.70;99.90
20831;DHT22;10576;53.556;9.868;2023-10-08T15:44:23;13.70;99.90
20831;DHT22;10576;53.556;9.868;2023-10-08T15:46:49;13.70;99.90
20831;DHT22;10576;53.556;9.868;2023-10-08T15:49:15;13.60;99.90
20831;DHT22;10576;53.556;9.868;2023-10-08T15:51:41;13.50;99.90
20831;DHT22;10576;53.556;9.868;2023-10-08T15:54:06;13.50;99.90
20831;DHT22;10576;53.556;9.868;2023-10-08T15:56:32;13.50;99.90
20831;DHT22;10576;53.556;9.868;2023-10-08T15:58:58;13.40;99.90
20831;DHT22;10576;53.556;9.868;2023-10-08T16:01:23;13.40;99.90
20831;DHT22;10576;53.556;9.868;2023-10-08T16:03:51;13.40;99.90
20831;DHT22;10576;53.556;9.868;2023-10-08T16:06:17;13.30;99.90
20831;DHT22;10576;53.556;9.868;2023-10-08T16:08:44;13.40;99.90